• Join FlightAware (Why Join?)
  • Login
  • US Flag 
09:21PM EDT


 

Airport Tracker/Info


-or-


 

Live Flight TrackerFlight Track Log ✈ UCA5001 ✈ 04-May-2013 ✈ KALB - KEWR

Flight Track Log - Related Links

Times and Time Zones

All times are in EDT time to prevent confusion due to time zone crossing. See the UCA5001 flight status page for this flight to view local times or setup timezone preferences in your user account.

Time Position Orientation Groundspeed Altitude Reporting Facility
EDT Latitude Longitude Course Direction KTS MPH feet Rate Location/Type
11:43AM 42.7589 -73.8058 209° Southwest 117 135 1,100  Level Boston Center
11:44AM 42.8025 -73.8211 346° North 157 181 2,700 1,440 Climbing Boston Center
11:45AM 42.7956 -73.8889 262° West 167 192 4,500 1,560 Climbing Boston Center
11:46AM 42.7617 -73.9303 222° Southwest 183 211 6,100 1,440 Climbing Boston Center
11:47AM 42.7092 -73.9575 201° Southwest 186 214 7,500 1,380 Climbing Boston Center
11:48AM 42.3803 -73.8695 209° Southwest  Level Estimated
11:48AM 42.6608 -73.9817 200° South 190 219 8,900  Level Boston Center
11:49AM 42.6083 -74.0086 201° Southwest 193 222 10,000 480 Climbing Boston Center
11:50AM 42.5456 -74.0353 197° South 240 276 10,000  Level Boston Center
11:52AM 42.4364 -74.0886 200° South 265 305 10,000  Level Boston Center
11:53AM 42.3797 -74.1153 199° South 254 292 10,000  Level Boston Center
11:54AM 42.3125 -74.1500 201° Southwest 245 282 10,100  Climbing Boston Center
11:55AM 42.2558 -74.1764 199° South 239 275 10,000 -60 Descending Boston Center
11:56AM 42.1886 -74.2167 204° Southwest 239 275 10,000  Level Boston Center
11:57AM 42.1378 -74.2544 209° Southwest 239 275 10,000 -360 Level Boston Center
11:58AM 42.0703 -74.3028 208° Southwest 245 282 9,300 -720 Descending Boston Center
11:59AM 42.0178 -74.3403 208° Southwest 245 282 8,600 -660 Descending Boston Center
12:00PM 41.9500 -74.3886 208° Southwest 250 288 8,000 -300 Descending Boston Center
12:01PM 41.8975 -74.4258 208° Southwest 245 282 8,100  Climbing Boston Center
12:02PM 41.8319 -74.4742 209° Southwest 245 282 8,000 -60 Descending Boston Center
12:03PM 41.7581 -74.5275 208° Southwest 251 289 8,000  Level Boston Center
12:04PM 41.6911 -74.5419 189° South 246 283 8,000  Level Boston Center
12:05PM 41.6200 -74.5533 187° South 251 289 8,000  Level Boston Center
12:06PM 41.5531 -74.5650 187° South 251 289 8,000 -60 Level Boston Center
12:07PM 41.4861 -74.5767 187° South 251 289 7,900 -540 Descending Boston Center
12:08PM 41.4169 -74.5908 189° South 256 295 7,000 -900 Descending Boston Center
12:09PM 41.3667 -74.6000 188° South 265 305 6,500 -660 Descending New York TRACON
12:10PM 41.3000 -74.6333 201° Southwest 257 296 6,000 -720 Descending New York TRACON
12:11PM 41.2333 -74.6333 180° South 247 284 5,100 -960 Descending New York TRACON
12:12PM 41.1667 -74.6167 169° South 219 252 4,100 -540 Descending New York TRACON
12:13PM 41.1000 -74.6000 169° South 211 243 4,100  Level New York TRACON
12:14PM 41.0500 -74.5833 166° South 223 257 4,100 -60 Level New York TRACON
12:15PM 40.9833 -74.5667 169° South 228 262 4,000  Descending New York TRACON
12:16PM 40.9167 -74.5333 159° South 228 262 4,100 -300 Climbing New York TRACON
12:17PM 40.8667 -74.5000 153° Southeast 225 259 3,400 -540 Descending New York TRACON
12:18PM 40.8167 -74.4833 166° South 219 252 3,100 -300 Descending New York TRACON
12:19PM 40.7667 -74.4500 153° Southeast 201 231 2,800 -480 Descending New York TRACON
12:20PM 40.7333 -74.4000 131° Southeast 194 223 2,300 -420 Descending New York TRACON
12:21PM 40.7167 -74.3333 108° East 160 184 2,000 -300 Descending New York TRACON
12:22PM 40.7000 -74.2833 114° Southeast 165 190 1,700 -540 Descending New York TRACON
12:23PM 40.7000 -74.2333 90° East 136 157 1,000 -780 Descending New York TRACON
12:24PM 40.7000 -74.1833 90° East 109 125 200 -840 Descending New York TRACON